createdAt,value
2019-06-20T00:00:01.392Z,9.90
2019-06-20T00:02:31.775Z,10.38
2019-06-20T00:05:02.207Z,10.40
2019-06-20T00:07:32.589Z,10.98
2019-06-20T00:10:03.203Z,11.03
2019-06-20T00:12:35.135Z,10.55
2019-06-20T00:15:06.761Z,11.60
2019-06-20T00:17:37.142Z,10.98
2019-06-20T00:20:08.786Z,10.88
2019-06-20T00:22:39.178Z,11.55
2019-06-20T00:25:09.796Z,11.78
2019-06-20T00:27:40.196Z,11.22
2019-06-20T00:30:11.336Z,11.70
2019-06-20T00:32:41.717Z,11.38
2019-06-20T00:35:12.521Z,11.80
2019-06-20T00:37:42.978Z,11.88
2019-06-20T00:40:13.602Z,11.73
2019-06-20T00:42:43.975Z,11.88
2019-06-20T00:45:15.696Z,12.05
2019-06-20T00:47:46.086Z,12.15
2019-06-20T00:50:16.581Z,12.82
2019-06-20T00:52:47.251Z,12.88
2019-06-20T00:55:17.884Z,12.30
2019-06-20T00:57:48.292Z,11.73
2019-06-20T01:00:20.726Z,12.95
2019-06-20T01:02:52.585Z,13.15
2019-06-20T01:05:23.040Z,13.53
2019-06-20T01:07:53.435Z,13.20
2019-06-20T01:10:23.956Z,12.90
2019-06-20T01:12:54.333Z,13.93
2019-06-20T01:15:24.873Z,12.70
2019-06-20T01:17:55.241Z,14.47
2019-06-20T01:20:25.645Z,13.40
2019-06-20T01:22:56.059Z,13.25
2019-06-20T01:25:37.193Z,13.08
2019-06-20T01:28:07.970Z,12.68
2019-06-20T01:30:38.623Z,13.65
2019-06-20T01:33:10.592Z,14.05
2019-06-20T01:35:41.038Z,13.38
2019-06-20T01:38:11.457Z,13.45
2019-06-20T01:40:41.840Z,13.78
2019-06-20T01:43:12.200Z,14.07
2019-06-20T01:45:42.744Z,13.98
2019-06-20T01:48:14.585Z,14.80
2019-06-20T01:50:44.968Z,14.38
2019-06-20T01:53:15.478Z,14.30
2019-06-20T01:55:45.867Z,15.05
2019-06-20T01:58:16.249Z,14.55
2019-06-20T02:00:49.021Z,14.93
2019-06-20T02:03:20.407Z,15.08
2019-06-20T02:05:50.856Z,15.00
2019-06-20T02:08:21.269Z,14.33
2019-06-20T02:10:51.726Z,14.68
2019-06-20T02:13:23.562Z,14.85
2019-06-20T02:15:54.039Z,14.63
2019-06-20T02:18:26.336Z,14.58
2019-06-20T02:21:00.033Z,14.73
2019-06-20T02:23:30.469Z,15.38
2019-06-20T02:26:00.871Z,14.03
2019-06-20T02:28:31.249Z,14.30
2019-06-20T02:31:01.700Z,14.58
2019-06-20T02:33:32.205Z,14.83
2019-06-20T02:36:02.666Z,14.10
2019-06-20T02:38:33.082Z,14.65
2019-06-20T02:41:03.469Z,13.70
2019-06-20T02:43:36.668Z,15.10
2019-06-20T02:46:08.852Z,14.80
2019-06-20T02:48:39.229Z,14.83
2019-06-20T02:51:09.603Z,15.93
2019-06-20T02:53:40.025Z,14.63
2019-06-20T02:56:10.681Z,14.90
2019-06-20T02:58:42.726Z,14.75
2019-06-20T03:01:13.185Z,15.08
2019-06-20T03:03:43.606Z,14.35
2019-06-20T03:06:14.067Z,14.60
2019-06-20T03:08:44.585Z,14.28
2019-06-20T03:11:14.968Z,13.72
2019-06-20T03:13:45.375Z,13.98
2019-06-20T03:16:16.595Z,13.18
2019-06-20T03:18:46.988Z,14.05
2019-06-20T03:21:17.381Z,12.70
2019-06-20T03:23:47.800Z,13.60
2019-06-20T03:26:19.648Z,13.43
2019-06-20T03:28:50.176Z,14.40
2019-06-20T03:31:20.636Z,12.37
2019-06-20T03:33:51.415Z,13.08
2019-06-20T03:36:21.785Z,11.30
2019-06-20T03:38:52.181Z,11.25
2019-06-20T03:41:22.601Z,11.93
2019-06-20T03:43:53.004Z,11.12
2019-06-20T03:46:23.501Z,11.63
2019-06-20T03:48:53.863Z,11.35
2019-06-20T03:51:24.285Z,11.48
2019-06-20T03:53:54.880Z,11.53
2019-06-20T03:56:25.305Z,10.63
2019-06-20T03:58:55.671Z,11.53
2019-06-20T04:01:26.093Z,10.45
2019-06-20T04:03:56.589Z,10.72
2019-06-20T04:06:27.001Z,10.08
2019-06-20T04:08:58.996Z,9.55
2019-06-20T04:11:29.438Z,9.80
2019-06-20T04:14:00.741Z,10.05
2019-06-20T04:16:31.164Z,10.28
2019-06-20T04:19:01.694Z,9.75
2019-06-20T04:21:32.095Z,10.05
2019-06-20T04:24:03.945Z,10.65
2019-06-20T04:26:34.561Z,10.63
2019-06-20T04:29:05.033Z,11.18
2019-06-20T04:31:35.484Z,10.85
2019-06-20T04:34:05.931Z,10.93
2019-06-20T04:36:36.480Z,10.35
2019-06-20T04:39:18.727Z,10.48
2019-06-20T04:41:39.643Z,11.78
2019-06-20T04:44:10.016Z,10.32
2019-06-20T04:46:42.067Z,10.03
2019-06-20T04:49:12.446Z,10.25
2019-06-20T04:51:44.930Z,10.72
2019-06-20T04:54:15.304Z,10.00
2019-06-20T04:56:47.267Z,10.25
2019-06-20T04:59:17.660Z,10.40
2019-06-20T05:01:48.063Z,10.18
2019-06-20T05:04:18.512Z,11.40
2019-06-20T05:06:51.873Z,11.22
2019-06-20T05:09:22.316Z,11.75
2019-06-20T05:11:54.216Z,11.55
2019-06-20T05:14:24.684Z,12.28
2019-06-20T05:16:55.739Z,11.50
2019-06-20T05:19:27.641Z,12.33
2019-06-20T05:21:58.177Z,12.10
2019-06-20T05:24:30.037Z,12.15
2019-06-20T05:27:00.474Z,12.78
2019-06-20T05:29:32.477Z,12.47
2019-06-20T05:32:04.352Z,13.35
2019-06-20T05:34:34.905Z,13.43
2019-06-20T05:37:05.512Z,12.10
2019-06-20T05:39:39.048Z,13.28
2019-06-20T05:42:10.941Z,12.05
2019-06-20T05:44:41.356Z,12.47
2019-06-20T05:47:13.979Z,14.53
2019-06-20T05:49:44.006Z,13.60
2019-06-20T05:52:14.409Z,13.15
2019-06-20T05:54:44.789Z,13.32
2019-06-20T05:57:15.320Z,13.93
2019-06-20T05:59:45.711Z,13.40
2019-06-20T06:02:16.247Z,13.85
2019-06-20T06:04:48.286Z,13.70
2019-06-20T06:07:18.786Z,13.65
2019-06-20T06:09:49.676Z,15.50
2019-06-20T06:12:20.121Z,14.60
2019-06-20T06:14:51.519Z,17.82
2019-06-20T06:17:21.941Z,14.83
2019-06-20T06:19:52.346Z,13.58
2019-06-20T06:22:22.747Z,16.10
2019-06-20T06:24:53.195Z,13.98
2019-06-20T06:27:23.654Z,15.08
2019-06-20T06:29:54.160Z,14.50
2019-06-20T06:32:39.179Z,15.13
2019-06-20T06:34:56.641Z,14.70
2019-06-20T06:37:27.023Z,14.70
2019-06-20T06:39:57.439Z,15.13
2019-06-20T06:42:27.840Z,13.43
2019-06-20T06:44:58.354Z,15.95
2019-06-20T06:47:29.351Z,14.93
2019-06-20T06:49:59.912Z,14.70
2019-06-20T06:52:30.363Z,15.68
2019-06-20T06:55:02.606Z,15.53
2019-06-20T06:57:33.185Z,14.18
2019-06-20T07:00:06.091Z,15.00
2019-06-20T07:02:36.734Z,14.78
2019-06-20T07:05:07.507Z,15.08
2019-06-20T07:07:37.569Z,16.48
2019-06-20T07:10:08.721Z,15.48
2019-06-20T07:12:39.284Z,15.08
2019-06-20T07:15:10.210Z,15.23
2019-06-20T07:17:40.726Z,15.72
2019-06-20T07:20:14.927Z,16.15
2019-06-20T07:22:43.473Z,16.55
2019-06-20T07:25:14.116Z,15.65
2019-06-20T07:27:46.183Z,15.05
2019-06-20T07:30:17.350Z,16.17
2019-06-20T07:32:48.578Z,17.32
2019-06-20T07:35:19.280Z,16.87
2019-06-20T07:37:49.670Z,18.20
2019-06-20T07:40:20.270Z,18.37
2019-06-20T07:42:50.942Z,17.07
2019-06-20T07:45:27.405Z,17.70
2019-06-20T07:47:58.145Z,16.50
2019-06-20T07:50:28.545Z,17.65
2019-06-20T07:53:02.407Z,17.75
2019-06-20T07:55:32.665Z,17.75
2019-06-20T07:58:03.433Z,19.40
2019-06-20T08:00:33.919Z,18.48
2019-06-20T08:03:04.839Z,18.32
2019-06-20T08:05:35.343Z,19.12
2019-06-20T08:08:05.791Z,18.10
2019-06-20T08:10:36.225Z,19.65
2019-06-20T08:13:06.592Z,19.30
2019-06-20T08:15:37.028Z,19.02
2019-06-20T08:18:09.164Z,18.73
2019-06-20T08:20:39.755Z,18.23
2019-06-20T08:23:10.138Z,19.60
2019-06-20T08:25:40.863Z,19.45
2019-06-20T08:28:12.877Z,18.70
2019-06-20T08:30:46.557Z,19.25
2019-06-20T08:33:16.998Z,19.92
2019-06-20T08:35:47.469Z,18.12
2019-06-20T08:38:20.537Z,18.05
2019-06-20T08:40:52.412Z,20.05
2019-06-20T08:43:22.813Z,21.60
2019-06-20T08:45:53.433Z,21.30
2019-06-20T08:48:24.654Z,19.25
2019-06-20T08:50:56.807Z,20.02
2019-06-20T08:53:27.144Z,20.35
2019-06-20T08:58:35.666Z,17.95
2019-06-20T09:03:37.927Z,17.40
2019-06-20T09:06:08.502Z,18.32
2019-06-20T09:08:38.883Z,17.87
2019-06-20T09:11:09.362Z,18.45
2019-06-20T09:13:40.686Z,16.60
2019-06-20T09:16:23.988Z,18.90
2019-06-20T09:18:43.351Z,18.37
2019-06-20T09:21:13.747Z,19.25
2019-06-20T09:23:44.985Z,18.87
2019-06-20T09:26:15.385Z,18.23
2019-06-20T09:28:45.798Z,18.70
2019-06-20T09:31:17.632Z,18.65
2019-06-20T09:33:52.178Z,18.95
2019-06-20T09:36:23.237Z,18.48
2019-06-20T09:38:53.998Z,16.80
2019-06-20T09:41:25.586Z,18.15
2019-06-20T09:43:56.447Z,18.55
2019-06-20T09:46:26.935Z,18.48
2019-06-20T09:48:58.676Z,17.77
2019-06-20T09:51:29.389Z,17.98
2019-06-20T09:53:59.774Z,18.57
2019-06-20T09:56:31.615Z,18.77
2019-06-20T09:59:02.030Z,18.27
2019-06-20T10:01:33.948Z,18.50
2019-06-20T10:04:04.841Z,17.30
2019-06-20T10:06:35.267Z,18.15
2019-06-20T10:09:08.105Z,18.70
2019-06-20T10:11:38.784Z,19.02
2019-06-20T10:14:09.416Z,19.85
2019-06-20T10:16:45.916Z,21.05
2019-06-20T10:19:13.477Z,23.77
2019-06-20T10:21:46.231Z,22.42
2019-06-20T10:24:16.177Z,24.23
2019-06-20T10:26:47.882Z,27.05
2019-06-20T10:29:18.795Z,26.70
2019-06-20T10:31:49.164Z,23.38
2019-06-20T10:34:19.565Z,21.75
2019-06-20T10:36:50.168Z,21.25
2019-06-20T10:39:20.612Z,22.48
2019-06-20T10:41:52.453Z,22.35
2019-06-20T10:44:24.519Z,23.90
2019-06-20T10:46:55.145Z,21.90
2019-06-20T10:49:25.635Z,22.07
2019-06-20T10:51:56.046Z,23.00
2019-06-20T10:54:26.433Z,23.42
2019-06-20T10:56:56.879Z,21.55
2019-06-20T10:59:27.290Z,20.08
2019-06-20T11:01:57.676Z,20.37
2019-06-20T11:04:28.141Z,21.20
2019-06-20T11:06:58.604Z,22.37
2019-06-20T11:09:29.038Z,19.50
2019-06-20T11:11:59.409Z,19.77
2019-06-20T11:14:30.660Z,20.00
2019-06-20T11:17:01.127Z,19.87
2019-06-20T11:19:31.528Z,18.87
2019-06-20T11:22:02.027Z,19.23
2019-06-20T11:24:34.145Z,20.65
2019-06-20T11:27:05.187Z,20.50
2019-06-20T11:29:36.859Z,19.12
2019-06-20T11:32:09.331Z,19.73
2019-06-20T11:34:39.735Z,19.62
2019-06-20T11:37:10.168Z,20.52
2019-06-20T11:39:41.122Z,19.37
2019-06-20T11:42:13.959Z,18.23
2019-06-20T11:44:44.468Z,18.40
2019-06-20T11:47:14.924Z,17.77
2019-06-20T11:49:45.354Z,18.75
2019-06-20T11:52:15.796Z,19.48
2019-06-20T11:54:46.196Z,20.88
2019-06-20T11:57:16.604Z,20.75
2019-06-20T11:59:47.352Z,20.27
2019-06-20T12:02:17.996Z,19.15
2019-06-20T12:04:49.117Z,19.37
2019-06-20T12:07:19.592Z,20.70
2019-06-20T12:09:51.120Z,17.85
2019-06-20T12:12:23.199Z,21.23
2019-06-20T12:14:53.810Z,19.42
2019-06-20T12:17:24.196Z,20.57
2019-06-20T12:19:54.747Z,21.40
2019-06-20T12:22:25.129Z,18.80
2019-06-20T12:24:55.536Z,18.87
2019-06-20T12:27:25.905Z,18.90
2019-06-20T12:29:56.511Z,18.73
2019-06-20T12:32:27.012Z,18.45
2019-06-20T12:34:57.506Z,19.45
2019-06-20T12:37:28.041Z,19.23
2019-06-20T12:39:58.456Z,19.57
2019-06-20T12:42:28.866Z,18.50
2019-06-20T12:44:59.357Z,17.87
2019-06-20T12:47:29.746Z,18.10
2019-06-20T12:50:00.181Z,18.10
2019-06-20T12:52:30.566Z,18.95
2019-06-20T12:55:00.988Z,18.60
2019-06-20T12:57:31.445Z,17.80
2019-06-20T13:00:01.953Z,17.82
2019-06-20T13:02:33.890Z,17.02
2019-06-20T13:05:06.014Z,19.90
2019-06-20T13:07:38.604Z,18.82
2019-06-20T13:10:09.491Z,18.32
2019-06-20T13:12:44.220Z,18.98
2019-06-20T13:15:16.685Z,19.23
2019-06-20T13:17:47.263Z,16.30
2019-06-20T13:20:17.855Z,15.90
2019-06-20T13:22:49.763Z,16.90
2019-06-20T13:25:20.225Z,17.05
2019-06-20T13:27:50.841Z,17.77
2019-06-20T13:30:21.796Z,18.70
2019-06-20T13:32:52.289Z,18.95
2019-06-20T13:35:22.722Z,18.32
2019-06-20T13:37:53.170Z,19.20
2019-06-20T13:40:23.666Z,17.57
2019-06-20T13:42:54.822Z,18.30
2019-06-20T13:45:26.998Z,17.57
2019-06-20T13:47:57.419Z,17.85
2019-06-20T13:50:27.803Z,18.23
2019-06-20T13:52:58.216Z,17.32
2019-06-20T13:55:28.584Z,16.20
2019-06-20T13:57:59.012Z,17.50
2019-06-20T14:00:31.972Z,18.77
2019-06-20T14:03:03.885Z,17.23
2019-06-20T14:05:34.328Z,18.17
2019-06-20T14:08:04.913Z,18.00
2019-06-20T14:10:35.291Z,18.73
2019-06-20T14:13:18.264Z,18.12
2019-06-20T14:15:38.161Z,17.27
2019-06-20T14:18:08.580Z,17.82
2019-06-20T14:20:39.085Z,17.42
2019-06-20T14:23:09.595Z,15.93
2019-06-20T14:25:42.443Z,15.72
2019-06-20T14:28:13.578Z,15.80
2019-06-20T14:30:45.029Z,15.70
2019-06-20T14:33:16.094Z,16.95
2019-06-20T14:35:47.831Z,16.52
2019-06-20T14:38:18.587Z,15.43
2019-06-20T14:40:50.552Z,16.52
2019-06-20T14:43:22.459Z,16.37
2019-06-20T14:45:52.886Z,16.77
2019-06-20T14:48:23.402Z,17.02
2019-06-20T14:50:53.836Z,17.05
2019-06-20T14:53:24.348Z,17.20
2019-06-20T14:55:54.744Z,17.45
2019-06-20T14:58:25.152Z,17.62
2019-06-20T15:00:55.941Z,18.25
2019-06-20T15:03:26.352Z,17.32
2019-06-20T15:05:56.754Z,17.62
2019-06-20T15:08:27.173Z,17.75
2019-06-20T15:10:57.585Z,18.32
2019-06-20T15:13:28.009Z,17.27
2019-06-20T15:15:58.408Z,15.80
2019-06-20T15:18:29.047Z,16.57
2019-06-20T15:21:01.012Z,15.38
2019-06-20T15:23:31.508Z,15.60
2019-06-20T15:26:02.005Z,15.50
2019-06-20T15:28:32.419Z,15.20
2019-06-20T15:31:02.810Z,16.62
2019-06-20T15:33:33.278Z,15.70
2019-06-20T15:36:03.716Z,16.37
2019-06-20T15:38:34.236Z,15.85
2019-06-20T15:41:04.608Z,15.88
2019-06-20T15:43:35.132Z,15.25
2019-06-20T15:46:05.518Z,15.98
2019-06-20T15:48:35.930Z,14.90
2019-06-20T15:51:06.390Z,14.80
2019-06-20T15:53:36.955Z,14.53
2019-06-20T15:56:07.457Z,16.10
2019-06-20T15:58:38.818Z,16.60
2019-06-20T16:01:09.269Z,14.85
2019-06-20T16:03:39.747Z,15.23
2019-06-20T16:06:10.507Z,15.53
2019-06-20T16:08:40.910Z,15.03
2019-06-20T16:11:11.500Z,15.18
2019-06-20T16:13:41.961Z,14.33
2019-06-20T16:16:12.638Z,14.47
2019-06-20T16:18:43.221Z,13.35
2019-06-20T16:21:13.651Z,13.68
2019-06-20T16:23:44.114Z,13.08
2019-06-20T16:26:14.597Z,13.78
2019-06-20T16:28:45.123Z,14.47
2019-06-20T16:31:26.273Z,13.22
2019-06-20T16:33:47.731Z,12.63
2019-06-20T16:36:19.585Z,15.18
2019-06-20T16:38:50.099Z,14.90
2019-06-20T16:41:20.529Z,16.62
2019-06-20T16:43:52.514Z,16.77
2019-06-20T16:46:22.986Z,15.83
2019-06-20T16:48:54.309Z,16.30
2019-06-20T16:51:24.689Z,16.48
2019-06-20T16:53:55.265Z,15.43
2019-06-20T16:56:25.646Z,14.87
2019-06-20T16:58:56.385Z,16.60
2019-06-20T17:01:26.850Z,14.00
2019-06-20T17:03:57.284Z,15.78
2019-06-20T17:06:27.757Z,16.25
2019-06-20T17:08:59.711Z,14.18
2019-06-20T17:11:30.171Z,10.78
2019-06-20T17:14:00.798Z,9.60
2019-06-20T17:16:32.877Z,8.70
2019-06-20T17:19:03.530Z,7.80
2019-06-20T17:21:33.912Z,7.97
2019-06-20T17:24:04.790Z,7.00
2019-06-20T17:26:35.234Z,6.37
2019-06-20T17:29:05.845Z,6.50
2019-06-20T17:31:36.316Z,6.50
2019-06-20T17:34:06.876Z,6.17
2019-06-20T17:36:37.422Z,6.80
2019-06-20T17:39:09.334Z,6.00
2019-06-20T17:41:54.180Z,6.53
2019-06-20T17:44:11.900Z,5.92
2019-06-20T17:46:42.269Z,6.53
2019-06-20T17:49:12.745Z,5.97
2019-06-20T17:51:43.381Z,6.10
2019-06-20T17:54:13.802Z,6.00
2019-06-20T17:56:44.342Z,6.35
2019-06-20T17:59:14.725Z,6.30
2019-06-20T18:01:45.139Z,5.95
2019-06-20T18:04:15.724Z,6.47
2019-06-20T18:06:46.158Z,6.03
2019-06-20T18:09:16.647Z,6.25
2019-06-20T18:11:47.127Z,6.50
2019-06-20T18:14:17.625Z,6.90
2019-06-20T18:16:48.181Z,6.42
2019-06-20T18:19:18.560Z,5.97
2019-06-20T18:21:49.019Z,6.42
2019-06-20T18:24:19.397Z,6.60
2019-06-20T18:26:49.813Z,6.95
2019-06-20T18:29:20.309Z,6.87
2019-06-20T18:31:50.834Z,7.20
2019-06-20T18:34:30.134Z,7.25
2019-06-20T18:36:53.437Z,6.40
2019-06-20T18:39:23.992Z,6.85
2019-06-20T18:41:54.411Z,7.87
2019-06-20T18:44:25.150Z,7.33
2019-06-20T18:46:55.565Z,7.60
2019-06-20T18:49:25.942Z,7.87
2019-06-20T18:51:56.453Z,7.35
2019-06-20T18:54:27.587Z,6.90
2019-06-20T18:56:58.026Z,7.53
2019-06-20T18:59:28.430Z,7.40
2019-06-20T19:02:00.643Z,8.10
2019-06-20T19:04:45.246Z,7.50
2019-06-20T19:07:04.870Z,7.37
2019-06-20T19:09:37.023Z,7.62
2019-06-20T19:12:07.455Z,6.62
2019-06-20T19:14:37.833Z,6.87
2019-06-20T19:17:08.310Z,6.62
2019-06-20T19:19:38.717Z,6.95
2019-06-20T19:22:09.124Z,5.78
2019-06-20T19:24:39.565Z,6.33
2019-06-20T19:27:10.159Z,6.72
2019-06-20T19:29:40.759Z,5.72
2019-06-20T19:32:11.217Z,7.30
2019-06-20T19:34:41.587Z,6.83
2019-06-20T19:37:12.019Z,5.87
2019-06-20T19:39:42.458Z,6.37
2019-06-20T19:42:12.922Z,6.60
2019-06-20T19:44:43.324Z,7.20
2019-06-20T19:47:13.787Z,6.53
2019-06-20T19:49:44.264Z,6.53
2019-06-20T19:52:16.310Z,6.65
2019-06-20T19:54:46.757Z,7.22
2019-06-20T19:57:17.169Z,6.92
2019-06-20T19:59:47.551Z,6.00
2019-06-20T20:02:18.023Z,7.00
2019-06-20T20:04:48.445Z,6.83
2019-06-20T20:07:18.885Z,7.72
2019-06-20T20:09:50.817Z,7.12
2019-06-20T20:12:21.190Z,6.90
2019-06-20T20:14:51.595Z,6.97
2019-06-20T20:17:23.568Z,7.00
2019-06-20T20:19:54.030Z,7.20
2019-06-20T20:22:24.387Z,8.53
2019-06-20T20:24:54.886Z,7.37
2019-06-20T20:27:26.089Z,7.60
2019-06-20T20:29:56.614Z,7.70
2019-06-20T20:32:27.245Z,7.03
2019-06-20T20:34:58.276Z,7.75
2019-06-20T20:37:28.958Z,8.30
2019-06-20T20:39:59.506Z,7.22
2019-06-20T20:42:29.972Z,7.22
2019-06-20T20:45:02.169Z,7.15
2019-06-20T20:47:32.743Z,7.67
2019-06-20T20:50:04.665Z,6.83
2019-06-20T20:52:35.154Z,7.92
2019-06-20T20:55:09.984Z,7.45
2019-06-20T20:57:40.370Z,6.85
2019-06-20T21:00:33.454Z,7.03
2019-06-20T21:03:07.222Z,7.78
2019-06-20T21:05:50.602Z,8.10
2019-06-20T21:08:09.665Z,8.03
2019-06-20T21:10:40.129Z,7.70
2019-06-20T21:13:10.575Z,7.28
2019-06-20T21:15:40.976Z,5.67
2019-06-20T21:18:11.464Z,5.83
2019-06-20T21:20:41.980Z,5.22
2019-06-20T21:23:12.428Z,5.72
2019-06-20T21:25:43.104Z,5.90
2019-06-20T21:28:13.498Z,5.50
2019-06-20T21:30:43.930Z,5.25
2019-06-20T21:33:14.313Z,5.00
2019-06-20T21:35:45.093Z,4.90
2019-06-20T21:38:15.496Z,5.15
2019-06-20T21:40:47.344Z,4.75
2019-06-20T21:43:19.343Z,4.97
2019-06-20T21:45:49.867Z,5.30
2019-06-20T21:48:20.429Z,5.95
2019-06-20T21:50:50.884Z,5.47
2019-06-20T21:53:23.027Z,4.67
2019-06-20T21:55:53.388Z,5.17
2019-06-20T21:58:23.792Z,4.40
2019-06-20T22:00:57.436Z,4.70
2019-06-20T22:03:28.210Z,3.30
2019-06-20T22:05:58.657Z,2.98
2019-06-20T22:08:29.155Z,2.60
2019-06-20T22:10:59.568Z,2.40
2019-06-20T22:13:29.983Z,1.87
2019-06-20T22:16:00.358Z,1.60
2019-06-20T22:18:30.943Z,1.82
2019-06-20T22:21:02.972Z,1.50
2019-06-20T22:23:33.391Z,1.52
2019-06-20T22:26:04.035Z,1.75
2019-06-20T22:28:35.757Z,1.80
2019-06-20T22:31:06.270Z,1.85
2019-06-20T22:33:37.002Z,1.70
2019-06-20T22:36:07.456Z,1.80
2019-06-20T22:38:40.185Z,1.30
2019-06-20T22:41:10.630Z,1.50
2019-06-20T22:43:41.044Z,1.62
2019-06-20T22:46:11.490Z,1.45
2019-06-20T22:48:41.942Z,1.80
2019-06-20T22:51:13.850Z,1.67
2019-06-20T22:53:44.494Z,1.40
2019-06-20T22:56:14.906Z,1.47
2019-06-20T22:58:47.656Z,1.32
2019-06-20T23:01:18.071Z,1.72
2019-06-20T23:03:48.503Z,1.40
2019-06-20T23:06:19.015Z,1.87
2019-06-20T23:08:49.473Z,1.80
2019-06-20T23:11:19.842Z,1.50
2019-06-20T23:13:50.247Z,1.60
2019-06-20T23:16:20.612Z,1.55
2019-06-20T23:18:51.214Z,1.57
2019-06-20T23:21:21.630Z,1.47
2019-06-20T23:23:52.055Z,1.30
2019-06-20T23:26:22.448Z,1.40
2019-06-20T23:29:10.597Z,1.20
2019-06-20T23:31:41.064Z,1.30
2019-06-20T23:34:11.535Z,1.67
2019-06-20T23:36:42.110Z,1.30
2019-06-20T23:39:14.075Z,1.30
2019-06-20T23:41:44.545Z,1.47
2019-06-20T23:44:15.019Z,1.77
2019-06-20T23:46:45.748Z,1.60
2019-06-20T23:49:16.367Z,1.80
2019-06-20T23:51:51.444Z,1.62
2019-06-20T23:54:21.844Z,1.62
2019-06-20T23:56:52.233Z,1.50
2019-06-20T23:59:22.807Z,1.62
